sensor_id;sensor_type;location;lat;lon;timestamp;P1;durP1;ratioP1;P2;durP2;ratioP2
76123;SDS011;65173;48.066;20.976;2024-03-02T00:02:11;28.90;;;15.98;;
76123;SDS011;65173;48.066;20.976;2024-03-02T00:05:17;30.38;;;15.32;;
76123;SDS011;65173;48.066;20.976;2024-03-02T00:08:23;31.42;;;15.02;;
76123;SDS011;65173;48.066;20.976;2024-03-02T00:11:27;33.25;;;16.75;;
76123;SDS011;65173;48.066;20.976;2024-03-02T00:14:30;33.20;;;14.90;;
76123;SDS011;65173;48.066;20.976;2024-03-02T00:17:32;27.53;;;14.87;;
76123;SDS011;65173;48.066;20.976;2024-03-02T00:20:35;22.60;;;13.75;;
76123;SDS011;65173;48.066;20.976;2024-03-02T00:23:38;30.80;;;14.77;;
76123;SDS011;65173;48.066;20.976;2024-03-02T00:26:43;24.60;;;13.77;;
76123;SDS011;65173;48.066;20.976;2024-03-02T00:29:47;27.45;;;14.38;;
76123;SDS011;65173;48.066;20.976;2024-03-02T00:32:49;23.50;;;12.88;;
76123;SDS011;65173;48.066;20.976;2024-03-02T00:35:55;23.15;;;13.48;;
76123;SDS011;65173;48.066;20.976;2024-03-02T00:38:58;19.85;;;12.02;;
76123;SDS011;65173;48.066;20.976;2024-03-02T00:42:01;23.33;;;13.73;;
76123;SDS011;65173;48.066;20.976;2024-03-02T00:45:07;24.63;;;13.13;;
76123;SDS011;65173;48.066;20.976;2024-03-02T00:48:10;26.23;;;13.33;;
76123;SDS011;65173;48.066;20.976;2024-03-02T00:51:12;26.70;;;13.85;;
76123;SDS011;65173;48.066;20.976;2024-03-02T00:54:15;23.70;;;12.60;;
76123;SDS011;65173;48.066;20.976;2024-03-02T00:57:22;27.23;;;12.37;;
76123;SDS011;65173;48.066;20.976;2024-03-02T01:00:28;25.17;;;12.80;;
76123;SDS011;65173;48.066;20.976;2024-03-02T01:03:31;26.25;;;11.82;;
76123;SDS011;65173;48.066;20.976;2024-03-02T01:06:34;20.73;;;12.10;;
76123;SDS011;65173;48.066;20.976;2024-03-02T01:09:37;29.08;;;12.82;;
76123;SDS011;65173;48.066;20.976;2024-03-02T01:12:40;24.73;;;12.73;;
76123;SDS011;65173;48.066;20.976;2024-03-02T01:15:42;22.27;;;12.75;;
76123;SDS011;65173;48.066;20.976;2024-03-02T01:18:46;25.50;;;12.93;;
76123;SDS011;65173;48.066;20.976;2024-03-02T01:21:49;33.92;;;13.40;;
76123;SDS011;65173;48.066;20.976;2024-03-02T01:24:52;21.90;;;13.50;;
76123;SDS011;65173;48.066;20.976;2024-03-02T01:27:55;23.93;;;11.70;;
76123;SDS011;65173;48.066;20.976;2024-03-02T01:30:57;22.80;;;12.23;;
76123;SDS011;65173;48.066;20.976;2024-03-02T01:34:00;22.48;;;12.63;;
76123;SDS011;65173;48.066;20.976;2024-03-02T01:37:03;23.40;;;13.38;;
76123;SDS011;65173;48.066;20.976;2024-03-02T01:40:05;20.90;;;12.15;;
76123;SDS011;65173;48.066;20.976;2024-03-02T01:43:12;27.73;;;11.10;;
76123;SDS011;65173;48.066;20.976;2024-03-02T01:46:14;22.45;;;13.23;;
76123;SDS011;65173;48.066;20.976;2024-03-02T01:49:16;20.23;;;11.50;;
76123;SDS011;65173;48.066;20.976;2024-03-02T01:52:19;23.90;;;12.00;;
76123;SDS011;65173;48.066;20.976;2024-03-02T01:55:22;20.73;;;11.85;;
76123;SDS011;65173;48.066;20.976;2024-03-02T01:58:25;22.13;;;11.77;;
76123;SDS011;65173;48.066;20.976;2024-03-02T02:01:27;22.00;;;11.80;;
76123;SDS011;65173;48.066;20.976;2024-03-02T02:04:29;23.40;;;10.63;;
76123;SDS011;65173;48.066;20.976;2024-03-02T02:07:33;26.90;;;12.70;;
76123;SDS011;65173;48.066;20.976;2024-03-02T02:10:37;27.27;;;12.07;;
76123;SDS011;65173;48.066;20.976;2024-03-02T02:13:39;18.55;;;11.45;;
76123;SDS011;65173;48.066;20.976;2024-03-02T02:16:41;22.60;;;12.07;;
76123;SDS011;65173;48.066;20.976;2024-03-02T02:19:44;25.47;;;12.27;;
76123;SDS011;65173;48.066;20.976;2024-03-02T02:26:02;21.38;;;12.30;;
76123;SDS011;65173;48.066;20.976;2024-03-02T02:29:05;19.03;;;10.87;;
76123;SDS011;65173;48.066;20.976;2024-03-02T02:32:08;23.42;;;12.65;;
76123;SDS011;65173;48.066;20.976;2024-03-02T02:35:11;26.88;;;11.65;;
76123;SDS011;65173;48.066;20.976;2024-03-02T02:38:14;19.88;;;11.43;;
76123;SDS011;65173;48.066;20.976;2024-03-02T02:41:17;17.23;;;10.27;;
76123;SDS011;65173;48.066;20.976;2024-03-02T02:44:19;22.85;;;10.25;;
76123;SDS011;65173;48.066;20.976;2024-03-02T02:47:22;22.90;;;11.70;;
76123;SDS011;65173;48.066;20.976;2024-03-02T02:50:25;24.00;;;11.60;;
76123;SDS011;65173;48.066;20.976;2024-03-02T02:53:27;22.75;;;11.05;;
76123;SDS011;65173;48.066;20.976;2024-03-02T02:56:29;22.65;;;12.50;;
76123;SDS011;65173;48.066;20.976;2024-03-02T02:59:32;23.30;;;12.13;;
76123;SDS011;65173;48.066;20.976;2024-03-02T03:02:34;25.27;;;11.43;;
76123;SDS011;65173;48.066;20.976;2024-03-02T03:05:37;22.80;;;11.30;;
76123;SDS011;65173;48.066;20.976;2024-03-02T03:08:39;26.33;;;12.82;;
76123;SDS011;65173;48.066;20.976;2024-03-02T03:11:42;24.85;;;12.75;;
76123;SDS011;65173;48.066;20.976;2024-03-02T03:14:44;24.00;;;11.27;;
76123;SDS011;65173;48.066;20.976;2024-03-02T03:17:47;26.17;;;12.48;;
76123;SDS011;65173;48.066;20.976;2024-03-02T03:20:49;26.47;;;12.63;;
76123;SDS011;65173;48.066;20.976;2024-03-02T03:23:52;24.63;;;12.02;;
76123;SDS011;65173;48.066;20.976;2024-03-02T03:26:54;23.20;;;12.27;;
76123;SDS011;65173;48.066;20.976;2024-03-02T03:29:57;22.33;;;11.50;;
76123;SDS011;65173;48.066;20.976;2024-03-02T03:32:59;24.65;;;12.50;;
76123;SDS011;65173;48.066;20.976;2024-03-02T03:36:02;25.73;;;11.93;;
76123;SDS011;65173;48.066;20.976;2024-03-02T03:39:05;25.15;;;12.25;;
76123;SDS011;65173;48.066;20.976;2024-03-02T03:42:08;20.55;;;12.60;;
76123;SDS011;65173;48.066;20.976;2024-03-02T03:45:11;28.95;;;13.90;;
76123;SDS011;65173;48.066;20.976;2024-03-02T03:48:13;23.63;;;12.20;;
76123;SDS011;65173;48.066;20.976;2024-03-02T03:51:16;27.67;;;13.73;;
76123;SDS011;65173;48.066;20.976;2024-03-02T03:54:18;23.45;;;12.35;;
76123;SDS011;65173;48.066;20.976;2024-03-02T03:57:21;26.90;;;13.52;;
76123;SDS011;65173;48.066;20.976;2024-03-02T04:00:23;24.03;;;14.17;;
76123;SDS011;65173;48.066;20.976;2024-03-02T04:03:26;33.72;;;14.68;;
76123;SDS011;65173;48.066;20.976;2024-03-02T04:06:28;24.15;;;12.77;;
76123;SDS011;65173;48.066;20.976;2024-03-02T04:09:31;28.20;;;14.10;;
76123;SDS011;65173;48.066;20.976;2024-03-02T04:12:34;26.10;;;13.35;;
76123;SDS011;65173;48.066;20.976;2024-03-02T04:15:38;20.30;;;12.32;;
76123;SDS011;65173;48.066;20.976;2024-03-02T04:18:42;21.98;;;11.90;;
76123;SDS011;65173;48.066;20.976;2024-03-02T04:21:45;21.67;;;12.00;;
76123;SDS011;65173;48.066;20.976;2024-03-02T04:24:47;24.17;;;11.63;;
76123;SDS011;65173;48.066;20.976;2024-03-02T04:27:50;20.45;;;11.18;;
76123;SDS011;65173;48.066;20.976;2024-03-02T04:30:52;18.80;;;10.50;;
76123;SDS011;65173;48.066;20.976;2024-03-02T04:33:55;17.48;;;10.77;;
76123;SDS011;65173;48.066;20.976;2024-03-02T04:36:57;27.23;;;11.50;;
76123;SDS011;65173;48.066;20.976;2024-03-02T04:40:00;25.02;;;10.95;;
76123;SDS011;65173;48.066;20.976;2024-03-02T04:43:03;18.13;;;10.77;;
76123;SDS011;65173;48.066;20.976;2024-03-02T04:46:06;18.83;;;10.38;;
76123;SDS011;65173;48.066;20.976;2024-03-02T04:49:09;19.60;;;10.18;;
76123;SDS011;65173;48.066;20.976;2024-03-02T04:52:12;20.73;;;10.50;;
76123;SDS011;65173;48.066;20.976;2024-03-02T04:55:14;21.10;;;10.00;;
76123;SDS011;65173;48.066;20.976;2024-03-02T04:58:46;26.77;;;12.20;;
76123;SDS011;65173;48.066;20.976;2024-03-02T05:01:48;19.57;;;10.50;;
76123;SDS011;65173;48.066;20.976;2024-03-02T05:04:51;25.45;;;11.75;;
76123;SDS011;65173;48.066;20.976;2024-03-02T05:07:53;20.08;;;10.43;;
76123;SDS011;65173;48.066;20.976;2024-03-02T05:10:56;21.10;;;11.75;;
76123;SDS011;65173;48.066;20.976;2024-03-02T05:14:19;23.00;;;10.30;;
76123;SDS011;65173;48.066;20.976;2024-03-02T05:17:21;20.38;;;10.70;;
76123;SDS011;65173;48.066;20.976;2024-03-02T05:20:23;16.45;;;9.43;;
76123;SDS011;65173;48.066;20.976;2024-03-02T05:23:26;18.77;;;9.43;;
76123;SDS011;65173;48.066;20.976;2024-03-02T05:26:28;24.90;;;10.52;;
76123;SDS011;65173;48.066;20.976;2024-03-02T05:29:31;21.15;;;10.55;;
76123;SDS011;65173;48.066;20.976;2024-03-02T05:32:33;25.27;;;10.67;;
76123;SDS011;65173;48.066;20.976;2024-03-02T05:35:36;22.83;;;10.57;;
76123;SDS011;65173;48.066;20.976;2024-03-02T05:38:38;22.33;;;11.35;;
76123;SDS011;65173;48.066;20.976;2024-03-02T05:41:41;19.77;;;10.30;;
76123;SDS011;65173;48.066;20.976;2024-03-02T05:44:43;21.90;;;11.68;;
76123;SDS011;65173;48.066;20.976;2024-03-02T05:47:46;18.98;;;11.23;;
76123;SDS011;65173;48.066;20.976;2024-03-02T05:50:48;20.05;;;11.05;;
76123;SDS011;65173;48.066;20.976;2024-03-02T05:53:51;22.87;;;13.20;;
76123;SDS011;65173;48.066;20.976;2024-03-02T05:56:53;26.50;;;14.40;;
76123;SDS011;65173;48.066;20.976;2024-03-02T05:59:56;22.00;;;12.43;;
76123;SDS011;65173;48.066;20.976;2024-03-02T06:02:58;24.63;;;13.80;;
76123;SDS011;65173;48.066;20.976;2024-03-02T06:06:01;26.30;;;13.00;;
76123;SDS011;65173;48.066;20.976;2024-03-02T06:09:04;25.15;;;13.55;;
76123;SDS011;65173;48.066;20.976;2024-03-02T06:12:10;22.88;;;12.15;;
76123;SDS011;65173;48.066;20.976;2024-03-02T06:15:12;29.40;;;13.80;;
76123;SDS011;65173;48.066;20.976;2024-03-02T06:18:15;26.92;;;14.82;;
76123;SDS011;65173;48.066;20.976;2024-03-02T06:21:17;31.30;;;14.93;;
76123;SDS011;65173;48.066;20.976;2024-03-02T06:24:20;31.50;;;15.30;;
76123;SDS011;65173;48.066;20.976;2024-03-02T06:27:26;25.10;;;13.45;;
76123;SDS011;65173;48.066;20.976;2024-03-02T06:30:28;26.05;;;12.73;;
76123;SDS011;65173;48.066;20.976;2024-03-02T06:33:31;30.07;;;15.13;;
76123;SDS011;65173;48.066;20.976;2024-03-02T06:36:34;28.20;;;15.88;;
76123;SDS011;65173;48.066;20.976;2024-03-02T06:39:36;28.52;;;15.32;;
76123;SDS011;65173;48.066;20.976;2024-03-02T06:42:39;25.92;;;15.30;;
76123;SDS011;65173;48.066;20.976;2024-03-02T06:45:41;24.65;;;14.35;;
76123;SDS011;65173;48.066;20.976;2024-03-02T06:48:44;27.55;;;14.68;;
76123;SDS011;65173;48.066;20.976;2024-03-02T06:51:46;29.77;;;15.75;;
76123;SDS011;65173;48.066;20.976;2024-03-02T06:54:49;29.97;;;15.77;;
76123;SDS011;65173;48.066;20.976;2024-03-02T06:57:52;29.23;;;17.25;;
76123;SDS011;65173;48.066;20.976;2024-03-02T07:00:54;28.65;;;16.40;;
76123;SDS011;65173;48.066;20.976;2024-03-02T07:03:57;43.07;;;20.73;;
76123;SDS011;65173;48.066;20.976;2024-03-02T07:07:00;40.70;;;24.30;;
76123;SDS011;65173;48.066;20.976;2024-03-02T07:10:05;51.20;;;23.98;;
76123;SDS011;65173;48.066;20.976;2024-03-02T07:13:09;44.13;;;22.80;;
76123;SDS011;65173;48.066;20.976;2024-03-02T07:16:12;41.22;;;22.52;;
76123;SDS011;65173;48.066;20.976;2024-03-02T07:19:29;60.40;;;26.88;;
76123;SDS011;65173;48.066;20.976;2024-03-02T07:22:32;50.60;;;28.10;;
76123;SDS011;65173;48.066;20.976;2024-03-02T07:25:35;41.40;;;24.63;;
76123;SDS011;65173;48.066;20.976;2024-03-02T07:28:41;38.97;;;21.02;;
76123;SDS011;65173;48.066;20.976;2024-03-02T07:31:44;33.65;;;16.75;;
76123;SDS011;65173;48.066;20.976;2024-03-02T07:34:46;34.50;;;18.23;;
76123;SDS011;65173;48.066;20.976;2024-03-02T07:37:49;41.15;;;18.25;;
76123;SDS011;65173;48.066;20.976;2024-03-02T07:40:51;33.03;;;18.02;;
76123;SDS011;65173;48.066;20.976;2024-03-02T07:43:55;34.53;;;17.65;;
76123;SDS011;65173;48.066;20.976;2024-03-02T07:46:58;32.20;;;15.70;;
76123;SDS011;65173;48.066;20.976;2024-03-02T07:50:00;32.50;;;17.52;;
76123;SDS011;65173;48.066;20.976;2024-03-02T07:53:03;38.50;;;17.13;;
76123;SDS011;65173;48.066;20.976;2024-03-02T07:56:06;29.60;;;15.00;;
76123;SDS011;65173;48.066;20.976;2024-03-02T07:59:08;43.00;;;17.10;;
76123;SDS011;65173;48.066;20.976;2024-03-02T08:02:11;30.30;;;16.20;;
76123;SDS011;65173;48.066;20.976;2024-03-02T08:05:14;31.47;;;14.80;;
76123;SDS011;65173;48.066;20.976;2024-03-02T08:08:18;31.30;;;15.05;;
76123;SDS011;65173;48.066;20.976;2024-03-02T08:11:23;19.58;;;11.85;;
76123;SDS011;65173;48.066;20.976;2024-03-02T08:14:25;24.90;;;13.13;;
76123;SDS011;65173;48.066;20.976;2024-03-02T08:17:28;28.75;;;13.73;;
76123;SDS011;65173;48.066;20.976;2024-03-02T08:20:30;28.25;;;14.25;;
76123;SDS011;65173;48.066;20.976;2024-03-02T08:23:34;24.33;;;14.43;;
76123;SDS011;65173;48.066;20.976;2024-03-02T08:26:37;28.53;;;13.83;;
76123;SDS011;65173;48.066;20.976;2024-03-02T08:29:40;27.17;;;15.02;;
76123;SDS011;65173;48.066;20.976;2024-03-02T08:32:43;23.95;;;14.38;;
76123;SDS011;65173;48.066;20.976;2024-03-02T08:35:47;25.67;;;14.87;;
76123;SDS011;65173;48.066;20.976;2024-03-02T08:38:50;24.38;;;13.43;;
76123;SDS011;65173;48.066;20.976;2024-03-02T08:41:52;24.23;;;14.05;;
76123;SDS011;65173;48.066;20.976;2024-03-02T08:44:55;27.02;;;15.57;;
76123;SDS011;65173;48.066;20.976;2024-03-02T08:47:58;27.15;;;14.48;;
76123;SDS011;65173;48.066;20.976;2024-03-02T08:51:00;29.17;;;15.52;;
76123;SDS011;65173;48.066;20.976;2024-03-02T08:54:03;30.35;;;15.30;;
76123;SDS011;65173;48.066;20.976;2024-03-02T08:57:06;17.67;;;9.17;;
76123;SDS011;65173;48.066;20.976;2024-03-02T09:00:10;23.02;;;12.60;;
76123;SDS011;65173;48.066;20.976;2024-03-02T09:03:13;14.18;;;8.80;;
76123;SDS011;65173;48.066;20.976;2024-03-02T09:06:15;19.93;;;11.43;;
76123;SDS011;65173;48.066;20.976;2024-03-02T09:09:22;12.23;;;8.15;;
76123;SDS011;65173;48.066;20.976;2024-03-02T09:12:25;13.65;;;7.00;;
76123;SDS011;65173;48.066;20.976;2024-03-02T09:15:28;21.27;;;10.98;;
76123;SDS011;65173;48.066;20.976;2024-03-02T09:18:31;7.43;;;4.85;;
76123;SDS011;65173;48.066;20.976;2024-03-02T09:21:33;12.02;;;8.35;;
76123;SDS011;65173;48.066;20.976;2024-03-02T09:24:36;16.15;;;8.23;;
76123;SDS011;65173;48.066;20.976;2024-03-02T09:27:39;22.03;;;8.90;;
76123;SDS011;65173;48.066;20.976;2024-03-02T09:30:42;13.32;;;7.25;;
76123;SDS011;65173;48.066;20.976;2024-03-02T09:33:44;14.18;;;7.88;;
76123;SDS011;65173;48.066;20.976;2024-03-02T09:36:47;18.07;;;10.00;;
76123;SDS011;65173;48.066;20.976;2024-03-02T09:39:50;14.93;;;7.95;;
76123;SDS011;65173;48.066;20.976;2024-03-02T09:42:52;20.70;;;11.18;;
76123;SDS011;65173;48.066;20.976;2024-03-02T09:45:57;23.90;;;12.00;;
76123;SDS011;65173;48.066;20.976;2024-03-02T09:48:59;10.68;;;7.25;;
76123;SDS011;65173;48.066;20.976;2024-03-02T09:52:02;22.92;;;10.63;;
76123;SDS011;65173;48.066;20.976;2024-03-02T09:55:05;13.10;;;6.10;;
76123;SDS011;65173;48.066;20.976;2024-03-02T09:58:08;15.90;;;6.80;;
76123;SDS011;65173;48.066;20.976;2024-03-02T10:01:11;15.90;;;8.27;;
76123;SDS011;65173;48.066;20.976;2024-03-02T10:04:14;10.05;;;6.15;;
76123;SDS011;65173;48.066;20.976;2024-03-02T10:07:17;20.27;;;8.37;;
76123;SDS011;65173;48.066;20.976;2024-03-02T10:10:23;20.80;;;8.02;;
76123;SDS011;65173;48.066;20.976;2024-03-02T10:13:25;11.70;;;6.05;;
76123;SDS011;65173;48.066;20.976;2024-03-02T10:16:31;14.18;;;6.20;;
76123;SDS011;65173;48.066;20.976;2024-03-02T10:19:34;15.38;;;6.20;;
76123;SDS011;65173;48.066;20.976;2024-03-02T10:22:39;9.38;;;5.20;;
76123;SDS011;65173;48.066;20.976;2024-03-02T10:25:41;11.65;;;5.95;;
76123;SDS011;65173;48.066;20.976;2024-03-02T10:28:58;7.80;;;4.93;;
76123;SDS011;65173;48.066;20.976;2024-03-02T10:32:02;5.70;;;2.83;;
76123;SDS011;65173;48.066;20.976;2024-03-02T10:35:05;6.15;;;3.85;;
76123;SDS011;65173;48.066;20.976;2024-03-02T10:38:08;5.40;;;2.30;;
76123;SDS011;65173;48.066;20.976;2024-03-02T10:41:17;7.22;;;2.75;;
76123;SDS011;65173;48.066;20.976;2024-03-02T10:44:20;3.58;;;2.15;;
76123;SDS011;65173;48.066;20.976;2024-03-02T10:47:25;4.80;;;3.25;;
76123;SDS011;65173;48.066;20.976;2024-03-02T10:50:29;2.95;;;1.23;;
76123;SDS011;65173;48.066;20.976;2024-03-02T10:53:32;5.57;;;3.00;;
76123;SDS011;65173;48.066;20.976;2024-03-02T10:56:41;4.03;;;2.53;;
76123;SDS011;65173;48.066;20.976;2024-03-02T10:59:52;5.20;;;2.77;;
76123;SDS011;65173;48.066;20.976;2024-03-02T11:03:04;5.15;;;2.95;;
76123;SDS011;65173;48.066;20.976;2024-03-02T11:06:13;5.47;;;3.20;;
76123;SDS011;65173;48.066;20.976;2024-03-02T11:09:18;9.60;;;3.83;;
76123;SDS011;65173;48.066;20.976;2024-03-02T11:12:29;4.90;;;3.03;;
76123;SDS011;65173;48.066;20.976;2024-03-02T11:15:34;5.13;;;2.90;;
76123;SDS011;65173;48.066;20.976;2024-03-02T11:18:38;2.85;;;2.08;;
76123;SDS011;65173;48.066;20.976;2024-03-02T11:21:42;2.53;;;2.08;;
76123;SDS011;65173;48.066;20.976;2024-03-02T11:24:49;5.38;;;2.47;;
76123;SDS011;65173;48.066;20.976;2024-03-02T11:30:56;4.73;;;2.40;;
76123;SDS011;65173;48.066;20.976;2024-03-02T11:34:01;2.42;;;1.85;;
76123;SDS011;65173;48.066;20.976;2024-03-02T11:37:20;2.97;;;2.13;;
76123;SDS011;65173;48.066;20.976;2024-03-02T11:40:22;2.57;;;1.60;;
76123;SDS011;65173;48.066;20.976;2024-03-02T11:43:27;2.78;;;1.77;;
76123;SDS011;65173;48.066;20.976;2024-03-02T11:46:30;4.75;;;2.22;;
76123;SDS011;65173;48.066;20.976;2024-03-02T11:52:51;0.90;;;0.80;;
76123;SDS011;65173;48.066;20.976;2024-03-02T11:55:54;3.15;;;2.00;;
76123;SDS011;65173;48.066;20.976;2024-03-02T11:58:58;0.98;;;0.68;;
76123;SDS011;65173;48.066;20.976;2024-03-02T12:02:01;3.47;;;1.87;;
76123;SDS011;65173;48.066;20.976;2024-03-02T12:05:05;3.08;;;1.67;;
76123;SDS011;65173;48.066;20.976;2024-03-02T12:08:08;3.53;;;1.70;;
76123;SDS011;65173;48.066;20.976;2024-03-02T12:11:12;2.30;;;1.13;;
76123;SDS011;65173;48.066;20.976;2024-03-02T12:14:18;1.55;;;1.17;;
76123;SDS011;65173;48.066;20.976;2024-03-02T12:17:20;1.52;;;1.35;;
76123;SDS011;65173;48.066;20.976;2024-03-02T12:20:24;1.75;;;1.08;;
76123;SDS011;65173;48.066;20.976;2024-03-02T12:23:28;2.65;;;2.42;;
76123;SDS011;65173;48.066;20.976;2024-03-02T12:26:31;3.13;;;1.88;;
76123;SDS011;65173;48.066;20.976;2024-03-02T12:29:33;3.45;;;1.90;;
76123;SDS011;65173;48.066;20.976;2024-03-02T12:32:37;2.10;;;1.87;;
76123;SDS011;65173;48.066;20.976;2024-03-02T12:35:41;3.63;;;2.47;;
76123;SDS011;65173;48.066;20.976;2024-03-02T12:38:44;2.20;;;1.85;;
76123;SDS011;65173;48.066;20.976;2024-03-02T12:41:49;2.37;;;1.53;;
76123;SDS011;65173;48.066;20.976;2024-03-02T12:44:56;4.13;;;2.55;;
76123;SDS011;65173;48.066;20.976;2024-03-02T12:47:59;3.65;;;2.38;;
76123;SDS011;65173;48.066;20.976;2024-03-02T12:51:02;6.82;;;2.60;;
76123;SDS011;65173;48.066;20.976;2024-03-02T12:54:06;4.97;;;2.38;;
76123;SDS011;65173;48.066;20.976;2024-03-02T12:57:10;1.55;;;1.45;;
76123;SDS011;65173;48.066;20.976;2024-03-02T13:00:19;3.42;;;2.47;;
76123;SDS011;65173;48.066;20.976;2024-03-02T13:03:23;3.50;;;2.07;;
76123;SDS011;65173;48.066;20.976;2024-03-02T13:06:26;3.05;;;1.98;;
76123;SDS011;65173;48.066;20.976;2024-03-02T13:09:31;4.00;;;2.58;;
76123;SDS011;65173;48.066;20.976;2024-03-02T13:12:36;6.10;;;2.67;;
76123;SDS011;65173;48.066;20.976;2024-03-02T13:15:39;3.63;;;2.95;;
76123;SDS011;65173;48.066;20.976;2024-03-02T13:18:42;3.28;;;2.40;;
76123;SDS011;65173;48.066;20.976;2024-03-02T13:21:47;3.45;;;2.25;;
76123;SDS011;65173;48.066;20.976;2024-03-02T13:24:49;3.70;;;2.75;;
76123;SDS011;65173;48.066;20.976;2024-03-02T13:27:53;4.10;;;2.88;;
76123;SDS011;65173;48.066;20.976;2024-03-02T13:30:55;3.10;;;2.20;;
76123;SDS011;65173;48.066;20.976;2024-03-02T13:33:58;5.07;;;2.97;;
76123;SDS011;65173;48.066;20.976;2024-03-02T13:37:00;3.72;;;2.30;;
76123;SDS011;65173;48.066;20.976;2024-03-02T13:40:04;3.13;;;1.92;;
76123;SDS011;65173;48.066;20.976;2024-03-02T13:43:07;5.80;;;3.20;;
76123;SDS011;65173;48.066;20.976;2024-03-02T13:46:10;4.68;;;2.60;;
76123;SDS011;65173;48.066;20.976;2024-03-02T13:49:13;5.45;;;2.97;;
76123;SDS011;65173;48.066;20.976;2024-03-02T13:52:15;5.38;;;2.72;;
76123;SDS011;65173;48.066;20.976;2024-03-02T13:55:21;5.97;;;2.75;;
76123;SDS011;65173;48.066;20.976;2024-03-02T13:58:23;4.30;;;2.50;;
76123;SDS011;65173;48.066;20.976;2024-03-02T14:01:26;4.43;;;2.50;;
76123;SDS011;65173;48.066;20.976;2024-03-02T14:04:29;10.83;;;5.53;;
76123;SDS011;65173;48.066;20.976;2024-03-02T14:07:36;4.47;;;2.97;;
76123;SDS011;65173;48.066;20.976;2024-03-02T14:10:43;3.75;;;2.30;;
76123;SDS011;65173;48.066;20.976;2024-03-02T14:13:45;4.47;;;2.87;;
76123;SDS011;65173;48.066;20.976;2024-03-02T14:16:56;7.82;;;3.40;;
76123;SDS011;65173;48.066;20.976;2024-03-02T14:19:58;4.40;;;2.78;;
76123;SDS011;65173;48.066;20.976;2024-03-02T14:23:01;4.65;;;2.95;;
76123;SDS011;65173;48.066;20.976;2024-03-02T14:26:05;3.97;;;2.80;;
76123;SDS011;65173;48.066;20.976;2024-03-02T14:29:07;4.13;;;3.08;;
76123;SDS011;65173;48.066;20.976;2024-03-02T14:32:10;4.40;;;2.47;;
76123;SDS011;65173;48.066;20.976;2024-03-02T14:35:13;5.63;;;2.90;;
76123;SDS011;65173;48.066;20.976;2024-03-02T14:38:15;4.75;;;2.60;;
76123;SDS011;65173;48.066;20.976;2024-03-02T14:41:18;4.45;;;2.83;;
76123;SDS011;65173;48.066;20.976;2024-03-02T14:44:20;3.30;;;2.70;;
76123;SDS011;65173;48.066;20.976;2024-03-02T14:47:23;7.15;;;3.45;;
76123;SDS011;65173;48.066;20.976;2024-03-02T14:50:27;5.32;;;2.90;;
76123;SDS011;65173;48.066;20.976;2024-03-02T14:53:30;4.10;;;2.33;;
76123;SDS011;65173;48.066;20.976;2024-03-02T14:56:32;4.50;;;2.72;;
76123;SDS011;65173;48.066;20.976;2024-03-02T14:59:35;3.20;;;2.58;;
76123;SDS011;65173;48.066;20.976;2024-03-02T15:02:37;3.80;;;2.28;;
76123;SDS011;65173;48.066;20.976;2024-03-02T15:05:40;3.60;;;3.07;;
76123;SDS011;65173;48.066;20.976;2024-03-02T15:08:42;7.38;;;2.97;;
76123;SDS011;65173;48.066;20.976;2024-03-02T15:11:45;4.63;;;2.80;;
76123;SDS011;65173;48.066;20.976;2024-03-02T15:14:48;5.40;;;3.13;;
76123;SDS011;65173;48.066;20.976;2024-03-02T15:17:51;4.40;;;3.25;;
76123;SDS011;65173;48.066;20.976;2024-03-02T15:20:54;5.65;;;2.47;;
76123;SDS011;65173;48.066;20.976;2024-03-02T15:23:57;6.45;;;3.90;;
76123;SDS011;65173;48.066;20.976;2024-03-02T15:26:59;5.25;;;3.53;;
76123;SDS011;65173;48.066;20.976;2024-03-02T15:30:02;6.18;;;3.65;;
76123;SDS011;65173;48.066;20.976;2024-03-02T15:33:05;8.93;;;4.22;;
76123;SDS011;65173;48.066;20.976;2024-03-02T15:36:07;6.07;;;3.33;;
76123;SDS011;65173;48.066;20.976;2024-03-02T15:39:10;7.88;;;3.47;;
76123;SDS011;65173;48.066;20.976;2024-03-02T15:42:12;7.13;;;3.88;;
76123;SDS011;65173;48.066;20.976;2024-03-02T15:45:15;7.10;;;4.30;;
76123;SDS011;65173;48.066;20.976;2024-03-02T15:48:18;10.07;;;4.93;;
76123;SDS011;65173;48.066;20.976;2024-03-02T15:51:20;8.68;;;4.50;;
76123;SDS011;65173;48.066;20.976;2024-03-02T15:54:23;7.50;;;4.20;;
76123;SDS011;65173;48.066;20.976;2024-03-02T15:57:25;12.63;;;6.78;;
76123;SDS011;65173;48.066;20.976;2024-03-02T16:00:28;21.40;;;13.73;;
76123;SDS011;65173;48.066;20.976;2024-03-02T16:03:31;52.33;;;22.98;;
76123;SDS011;65173;48.066;20.976;2024-03-02T16:06:35;197.73;;;59.47;;
76123;SDS011;65173;48.066;20.976;2024-03-02T16:09:37;138.00;;;40.75;;
76123;SDS011;65173;48.066;20.976;2024-03-02T16:12:40;113.35;;;36.13;;
76123;SDS011;65173;48.066;20.976;2024-03-02T16:15:43;111.57;;;36.20;;
76123;SDS011;65173;48.066;20.976;2024-03-02T16:18:45;28.95;;;15.77;;
76123;SDS011;65173;48.066;20.976;2024-03-02T16:21:48;59.97;;;29.15;;
76123;SDS011;65173;48.066;20.976;2024-03-02T16:24:50;41.03;;;22.60;;
76123;SDS011;65173;48.066;20.976;2024-03-02T16:27:53;30.58;;;16.58;;
76123;SDS011;65173;48.066;20.976;2024-03-02T16:30:56;20.40;;;10.05;;
76123;SDS011;65173;48.066;20.976;2024-03-02T16:33:59;23.65;;;11.27;;
76123;SDS011;65173;48.066;20.976;2024-03-02T16:37:01;51.77;;;24.07;;
76123;SDS011;65173;48.066;20.976;2024-03-02T16:40:05;29.73;;;15.32;;
76123;SDS011;65173;48.066;20.976;2024-03-02T16:43:09;65.60;;;26.60;;
76123;SDS011;65173;48.066;20.976;2024-03-02T16:46:11;64.70;;;27.13;;
76123;SDS011;65173;48.066;20.976;2024-03-02T16:49:14;29.13;;;15.15;;
76123;SDS011;65173;48.066;20.976;2024-03-02T16:52:17;18.23;;;11.88;;
76123;SDS011;65173;48.066;20.976;2024-03-02T16:55:26;24.10;;;13.02;;
76123;SDS011;65173;48.066;20.976;2024-03-02T16:58:29;14.60;;;6.75;;
76123;SDS011;65173;48.066;20.976;2024-03-02T17:01:32;27.42;;;13.93;;
76123;SDS011;65173;48.066;20.976;2024-03-02T17:04:34;34.90;;;18.52;;
76123;SDS011;65173;48.066;20.976;2024-03-02T17:07:37;43.13;;;21.87;;
76123;SDS011;65173;48.066;20.976;2024-03-02T17:10:39;48.10;;;26.48;;
76123;SDS011;65173;48.066;20.976;2024-03-02T17:13:42;58.22;;;30.30;;
76123;SDS011;65173;48.066;20.976;2024-03-02T17:16:45;64.23;;;30.83;;
76123;SDS011;65173;48.066;20.976;2024-03-02T17:19:47;62.58;;;32.90;;
76123;SDS011;65173;48.066;20.976;2024-03-02T17:22:50;71.68;;;37.40;;
76123;SDS011;65173;48.066;20.976;2024-03-02T17:25:53;68.40;;;33.97;;
76123;SDS011;65173;48.066;20.976;2024-03-02T17:28:55;67.35;;;32.28;;
76123;SDS011;65173;48.066;20.976;2024-03-02T17:31:58;48.03;;;22.88;;
76123;SDS011;65173;48.066;20.976;2024-03-02T17:35:00;28.45;;;13.40;;
76123;SDS011;65173;48.066;20.976;2024-03-02T17:38:03;27.40;;;13.17;;
76123;SDS011;65173;48.066;20.976;2024-03-02T17:41:05;24.55;;;12.50;;
76123;SDS011;65173;48.066;20.976;2024-03-02T17:44:09;17.88;;;9.75;;
76123;SDS011;65173;48.066;20.976;2024-03-02T17:47:12;17.20;;;7.03;;
76123;SDS011;65173;48.066;20.976;2024-03-02T17:50:15;15.40;;;6.55;;
76123;SDS011;65173;48.066;20.976;2024-03-02T17:53:17;14.65;;;6.40;;
76123;SDS011;65173;48.066;20.976;2024-03-02T17:56:20;18.45;;;8.50;;
76123;SDS011;65173;48.066;20.976;2024-03-02T17:59:23;19.45;;;8.27;;